createdAt,value
2019-04-28T00:02:04.039Z,101254.17
2019-04-28T00:05:27.282Z,101254.47
2019-04-28T00:08:51.749Z,101262.02
2019-04-28T00:12:15.361Z,101259.19
2019-04-28T00:15:38.669Z,101250.72
2019-04-28T00:19:01.993Z,101253.61
2019-04-28T00:22:31.896Z,101254.33
2019-04-28T00:26:07.106Z,101248.69
2019-04-28T00:29:38.685Z,101254.87
2019-04-28T00:32:55.568Z,101255.54
2019-04-28T00:36:18.817Z,101262.78
2019-04-28T00:39:41.974Z,101256.23
2019-04-28T00:43:05.232Z,101265.84
2019-04-28T00:46:33.206Z,101256.30
2019-04-28T00:49:56.237Z,101257.27
2019-04-28T00:53:20.702Z,101254.11
2019-04-28T00:56:44.391Z,101257.25
2019-04-28T01:00:07.920Z,101257.83
2019-04-28T01:03:32.298Z,101250.81
2019-04-28T01:06:55.373Z,101254.31
2019-04-28T01:10:21.052Z,101256.87
2019-04-28T01:13:44.244Z,101249.09
2019-04-28T01:17:13.142Z,101251.38
2019-04-28T01:20:36.261Z,101254.47
2019-04-28T01:23:59.840Z,101253.22
2019-04-28T01:27:50.426Z,101256.30
2019-04-28T01:31:22.091Z,101259.80
2019-04-28T01:34:45.498Z,101258.30
2019-04-28T01:38:09.944Z,101252.92
2019-04-28T01:41:33.463Z,101251.56
2019-04-28T01:44:56.557Z,101252.44
2019-04-28T01:48:19.992Z,101257.83
2019-04-28T01:51:43.062Z,101260.64
2019-04-28T01:55:06.101Z,101254.61
2019-04-28T01:58:29.738Z,101257.48
2019-04-28T02:01:52.891Z,101260.55
2019-04-28T02:05:16.043Z,101261.19
2019-04-28T02:08:39.888Z,101275.72
2019-04-28T02:12:03.278Z,101280.25
2019-04-28T02:15:26.357Z,101266.20
2019-04-28T02:18:50.475Z,101269.02
2019-04-28T02:22:37.145Z,101263.69
2019-04-28T02:26:00.153Z,101272.90
2019-04-28T02:29:23.494Z,101269.66
2019-04-28T02:32:46.505Z,101276.22
2019-04-28T02:36:12.310Z,101270.05
2019-04-28T02:39:34.829Z,101277.95
2019-04-28T02:42:58.270Z,101272.36
2019-04-28T02:46:21.282Z,101275.30
2019-04-28T02:49:56.992Z,101276.84
2019-04-28T02:53:30.941Z,101275.48
2019-04-28T02:56:53.114Z,101277.70
2019-04-28T03:00:16.724Z,101282.98
2019-04-28T03:03:40.937Z,101284.09
2019-04-28T03:07:04.144Z,101288.22
2019-04-28T03:10:27.498Z,101280.92
2019-04-28T03:13:51.253Z,101280.11
2019-04-28T03:17:14.527Z,101289.92
2019-04-28T03:20:37.502Z,101288.58
2019-04-28T03:24:01.242Z,101288.14
2019-04-28T03:27:43.016Z,101285.78
2019-04-28T03:31:48.937Z,101289.27
2019-04-28T03:34:53.208Z,101288.44
2019-04-28T03:38:12.896Z,101290.65
2019-04-28T03:41:36.222Z,101291.61
2019-04-28T03:45:01.231Z,101296.56
2019-04-28T03:48:24.232Z,101298.23
2019-04-28T03:51:47.242Z,101301.53
2019-04-28T03:55:11.730Z,101297.34
2019-04-28T03:58:34.877Z,101289.82
2019-04-28T04:02:00.749Z,101308.17
2019-04-28T04:05:22.841Z,101305.17
2019-04-28T04:08:46.180Z,101303.64
2019-04-28T04:12:40.994Z,101319.47
2019-04-28T04:16:12.952Z,101308.69
2019-04-28T04:19:36.401Z,101301.27
2019-04-28T04:23:01.446Z,101308.41
2019-04-28T04:26:24.816Z,101307.20
2019-04-28T04:29:47.844Z,101311.58
2019-04-28T04:33:11.342Z,101307.97
2019-04-28T04:36:34.470Z,101313.64
2019-04-28T04:39:57.602Z,101317.12
2019-04-28T04:43:23.416Z,101324.38
2019-04-28T04:46:46.322Z,101326.81
2019-04-28T04:50:11.324Z,101330.76
2019-04-28T04:53:35.913Z,101341.77
2019-04-28T04:57:00.019Z,101344.16
2019-04-28T05:00:34.504Z,101347.30
2019-04-28T05:04:04.576Z,101347.00
2019-04-28T05:07:29.667Z,101355.52
2019-04-28T05:10:52.941Z,101354.91
2019-04-28T05:14:15.945Z,101361.63
2019-04-28T05:17:41.247Z,101375.12
2019-04-28T05:25:10.077Z,101364.94
2019-04-28T05:28:36.882Z,101369.83
2019-04-28T05:32:02.981Z,101378.75
2019-04-28T05:35:25.223Z,101377.39
2019-04-28T05:38:49.659Z,101384.32
2019-04-28T05:42:12.836Z,101383.26
2019-04-28T05:45:35.830Z,101388.31
2019-04-28T05:49:19.562Z,101390.05
2019-04-28T05:53:02.163Z,101405.12
2019-04-28T05:56:40.283Z,101401.48
2019-04-28T06:00:16.391Z,101401.75
2019-04-28T06:03:40.569Z,101404.89
2019-04-28T06:07:17.090Z,101394.47
2019-04-28T06:10:40.331Z,101401.39
2019-04-28T06:14:27.495Z,101404.50
2019-04-28T06:17:51.112Z,101400.52
2019-04-28T06:21:14.227Z,101406.66
2019-04-28T06:24:37.390Z,101406.91
2019-04-28T06:28:00.773Z,101402.19
2019-04-28T06:31:23.769Z,101405.31
2019-04-28T06:34:46.844Z,101411.54
2019-04-28T06:38:09.925Z,101405.56
2019-04-28T06:41:32.979Z,101413.23
2019-04-28T06:44:56.179Z,101418.39
2019-04-28T06:48:19.318Z,101415.48
2019-04-28T06:51:42.369Z,101430.27
2019-04-28T06:55:05.605Z,101419.22
2019-04-28T06:58:28.878Z,101425.45
2019-04-28T07:01:51.912Z,101435.41
2019-04-28T07:05:15.036Z,101430.66
2019-04-28T07:08:38.061Z,101441.28
2019-04-28T07:12:01.496Z,101439.89
2019-04-28T07:15:25.694Z,101435.46
2019-04-28T07:18:48.852Z,101437.05
2019-04-28T07:22:20.757Z,101442.61
2019-04-28T07:25:44.166Z,101433.34
2019-04-28T07:29:07.398Z,101441.19
2019-04-28T07:32:30.739Z,101444.11
2019-04-28T07:35:53.808Z,101446.78
2019-04-28T07:39:16.847Z,101454.34
2019-04-28T07:42:40.059Z,101454.59
2019-04-28T07:46:03.226Z,101446.03
2019-04-28T07:49:27.332Z,101450.36
2019-04-28T07:53:22.097Z,101450.11
2019-04-28T07:56:45.238Z,101455.91
2019-04-28T08:00:11.633Z,101455.14
2019-04-28T08:03:48.499Z,101467.31
2019-04-28T08:07:01.495Z,101463.19
2019-04-28T08:10:24.566Z,101466.92
2019-04-28T08:13:47.622Z,101472.14
2019-04-28T08:17:10.603Z,101478.84
2019-04-28T08:20:34.192Z,101472.27
2019-04-28T08:23:57.674Z,101467.93
2019-04-28T08:27:20.796Z,101461.60
2019-04-28T08:30:44.702Z,101465.06
2019-04-28T08:34:12.434Z,101465.34
2019-04-28T08:37:35.444Z,101468.69
2019-04-28T08:41:01.931Z,101468.06
2019-04-28T08:44:25.155Z,101474.42
2019-04-28T08:47:48.264Z,101472.75
2019-04-28T08:51:11.281Z,101481.66
2019-04-28T08:54:34.484Z,101481.84
2019-04-28T08:57:58.106Z,101473.23
2019-04-28T09:01:21.551Z,101481.58
2019-04-28T09:04:44.909Z,101484.89
2019-04-28T09:08:08.098Z,101489.98
2019-04-28T09:11:31.132Z,101489.47
2019-04-28T09:14:54.366Z,101495.75
2019-04-28T09:18:17.707Z,101494.77
2019-04-28T09:21:41.008Z,101496.84
2019-04-28T09:25:04.614Z,101512.98
2019-04-28T09:28:27.676Z,101506.22
2019-04-28T09:31:50.709Z,101510.05
2019-04-28T09:35:15.130Z,101511.41
2019-04-28T09:38:38.461Z,101516.06
2019-04-28T09:42:20.068Z,101516.58
2019-04-28T09:45:55.275Z,101514.22
2019-04-28T09:49:18.642Z,101515.16
2019-04-28T09:52:41.813Z,101517.90
2019-04-28T09:56:05.087Z,101513.88
2019-04-28T09:59:28.751Z,101519.38
2019-04-28T10:02:52.395Z,101517.08
2019-04-28T10:06:15.933Z,101528.95
2019-04-28T10:09:39.495Z,101519.47
2019-04-28T10:13:03.970Z,101524.80
2019-04-28T10:17:32.832Z,101535.19
2019-04-28T10:21:22.320Z,101527.20
2019-04-28T10:24:50.957Z,101523.06
2019-04-28T10:28:13.873Z,101539.05
2019-04-28T10:31:37.255Z,101535.97
2019-04-28T10:35:00.498Z,101534.60
2019-04-28T10:38:25.173Z,101530.56
2019-04-28T10:41:48.907Z,101530.77
2019-04-28T10:45:15.870Z,101530.45
2019-04-28T10:48:38.869Z,101537.06
2019-04-28T10:52:01.997Z,101535.42
2019-04-28T10:55:25.106Z,101528.23
2019-04-28T10:58:50.048Z,101534.49
2019-04-28T11:02:13.218Z,101534.11
2019-04-28T11:05:41.436Z,101534.84
2019-04-28T11:09:30.457Z,101541.69
2019-04-28T11:12:47.785Z,101541.40
2019-04-28T11:16:13.786Z,101548.80
2019-04-28T11:19:37.216Z,101548.73
2019-04-28T11:23:00.635Z,101549.68
2019-04-28T11:26:23.655Z,101545.16
2019-04-28T11:29:47.796Z,101547.66
2019-04-28T11:33:30.583Z,101541.38
2019-04-28T11:36:53.867Z,101554.42
2019-04-28T11:40:17.005Z,101543.56
2019-04-28T11:43:40.568Z,101541.70
2019-04-28T11:47:05.754Z,101548.09
2019-04-28T11:50:29.346Z,101543.53
2019-04-28T11:53:52.510Z,101540.45
2019-04-28T11:57:15.655Z,101542.37
2019-04-28T12:00:38.752Z,101543.18
2019-04-28T12:04:03.824Z,101542.48
2019-04-28T12:07:28.800Z,101543.30
2019-04-28T12:11:00.079Z,101545.70
2019-04-28T12:14:34.638Z,101539.07
2019-04-28T12:18:28.800Z,101535.28
2019-04-28T12:21:51.947Z,101537.59
2019-04-28T12:25:15.446Z,101540.22
2019-04-28T12:28:38.489Z,101551.19
2019-04-28T12:32:01.581Z,101557.50
2019-04-28T12:35:24.695Z,101558.27
2019-04-28T12:38:47.982Z,101560.27
2019-04-28T12:42:10.985Z,101562.27
2019-04-28T12:45:35.207Z,101569.56
2019-04-28T12:49:02.198Z,101567.05
2019-04-28T12:52:25.381Z,101575.63
2019-04-28T12:55:48.463Z,101576.86
2019-04-28T12:59:17.092Z,101574.80
2019-04-28T13:03:00.792Z,101579.52
2019-04-28T13:06:24.000Z,101581.81
2019-04-28T13:09:47.316Z,101582.56
2019-04-28T13:13:10.363Z,101579.09
2019-04-28T13:16:34.599Z,101581.56
2019-04-28T13:19:57.753Z,101582.92
2019-04-28T13:23:20.798Z,101587.90
2019-04-28T13:26:46.291Z,101591.73
2019-04-28T13:30:09.912Z,101581.52
2019-04-28T13:33:35.862Z,101590.13
2019-04-28T13:36:59.028Z,101583.88
2019-04-28T13:40:26.908Z,101583.50
2019-04-28T13:43:50.022Z,101584.86
2019-04-28T13:47:13.474Z,101583.30
2019-04-28T13:50:37.704Z,101581.94
2019-04-28T13:54:03.138Z,101589.28
2019-04-28T13:57:26.357Z,101586.27
2019-04-28T14:01:09.142Z,101589.95
2019-04-28T14:04:58.667Z,101587.08
2019-04-28T14:08:22.909Z,101592.95
2019-04-28T14:11:46.371Z,101592.41
2019-04-28T14:15:10.144Z,101586.98
2019-04-28T14:18:33.793Z,101594.18
2019-04-28T14:21:56.858Z,101596.27
2019-04-28T14:25:20.008Z,101599.95
2019-04-28T14:28:43.288Z,101595.29
2019-04-28T14:32:06.495Z,101603.89
2019-04-28T14:35:30.445Z,101603.21
2019-04-28T14:38:53.702Z,101599.98
2019-04-28T14:42:16.772Z,101598.88
2019-04-28T14:45:40.029Z,101605.64
2019-04-28T14:49:03.298Z,101611.88
2019-04-28T14:52:26.803Z,101611.50
2019-04-28T14:55:50.435Z,101611.14
2019-04-28T14:59:13.909Z,101613.73
2019-04-28T15:02:46.257Z,101613.57
2019-04-28T15:06:24.790Z,101611.49
2019-04-28T15:10:10.094Z,101615.05
2019-04-28T15:13:45.613Z,101617.08
2019-04-28T15:17:11.632Z,101612.09
2019-04-28T15:20:34.744Z,101622.38
2019-04-28T15:23:57.947Z,101621.12
2019-04-28T15:27:21.005Z,101625.55
2019-04-28T15:30:44.289Z,101631.09
2019-04-28T15:34:07.412Z,101632.32
2019-04-28T15:37:30.502Z,101635.84
2019-04-28T15:40:53.502Z,101627.05
2019-04-28T15:44:16.558Z,101634.77
2019-04-28T15:47:39.582Z,101631.34
2019-04-28T15:51:03.061Z,101620.66
2019-04-28T15:54:26.262Z,101627.94
2019-04-28T15:57:49.398Z,101629.16
2019-04-28T16:01:12.489Z,101628.00
2019-04-28T16:04:35.674Z,101631.80
2019-04-28T16:07:58.850Z,101628.23
2019-04-28T16:11:22.198Z,101630.09
2019-04-28T16:14:45.203Z,101626.48
2019-04-28T16:18:08.628Z,101630.59
2019-04-28T16:21:31.737Z,101637.55
2019-04-28T16:24:55.216Z,101637.51
2019-04-28T16:28:18.229Z,101643.33
2019-04-28T16:31:41.394Z,101637.72
2019-04-28T16:35:04.552Z,101638.27
2019-04-28T16:38:27.842Z,101647.35
2019-04-28T16:42:26.901Z,101647.61
2019-04-28T16:45:51.979Z,101651.09
2019-04-28T16:49:15.097Z,101652.42
2019-04-28T16:52:38.368Z,101657.68
2019-04-28T16:56:23.896Z,101656.81
2019-04-28T16:59:51.650Z,101661.57
2019-04-28T17:03:16.177Z,101663.18
2019-04-28T17:06:39.263Z,101670.89
2019-04-28T17:10:02.256Z,101676.58
2019-04-28T17:13:25.369Z,101680.23
2019-04-28T17:16:48.491Z,101685.70
2019-04-28T17:20:11.854Z,101689.11
2019-04-28T17:23:34.957Z,101686.47
2019-04-28T17:26:58.180Z,101689.16
2019-04-28T17:30:22.776Z,101693.19
2019-04-28T17:33:46.115Z,101694.84
2019-04-28T17:37:10.742Z,101698.63
2019-04-28T17:40:35.235Z,101692.64
2019-04-28T17:43:59.034Z,101695.36
2019-04-28T17:47:23.128Z,101698.24
2019-04-28T17:50:46.842Z,101700.69
2019-04-28T17:54:10.338Z,101702.88
2019-04-28T17:57:33.433Z,101707.05
2019-04-28T18:01:16.042Z,101711.69
2019-04-28T18:04:47.421Z,101721.83
2019-04-28T18:08:20.889Z,101718.94
2019-04-28T18:11:36.040Z,101722.95
2019-04-28T18:15:14.394Z,101729.11
2019-04-28T18:18:46.706Z,101728.95
2019-04-28T18:22:09.736Z,101737.36
2019-04-28T18:25:32.889Z,101742.63
2019-04-28T18:28:56.323Z,101741.50
2019-04-28T18:32:44.674Z,101745.57
2019-04-28T18:36:15.234Z,101754.36
2019-04-28T18:39:57.082Z,101764.25
2019-04-28T18:43:45.785Z,101773.91
2019-04-28T18:47:09.257Z,101786.73
2019-04-28T18:50:33.488Z,101792.51
2019-04-28T18:53:57.363Z,101801.12
2019-04-28T18:57:21.033Z,101807.88
2019-04-28T19:00:51.246Z,101817.30
2019-04-28T19:04:15.151Z,101824.74
2019-04-28T19:08:16.058Z,101828.92
2019-04-28T19:11:53.850Z,101825.45
2019-04-28T19:15:39.700Z,101828.87
2019-04-28T19:19:05.922Z,101828.47
2019-04-28T19:22:32.511Z,101836.34
2019-04-28T19:25:55.881Z,101837.77
2019-04-28T19:29:19.459Z,101851.42
2019-04-28T19:32:42.878Z,101855.06
2019-04-28T19:36:06.156Z,101854.68
2019-04-28T19:39:32.787Z,101864.52
2019-04-28T19:42:57.492Z,101870.08
2019-04-28T19:46:21.634Z,101875.03
2019-04-28T19:49:46.826Z,101879.42
2019-04-28T19:53:13.450Z,101874.22
2019-04-28T19:56:48.151Z,101877.19
2019-04-28T20:00:24.730Z,101878.98
2019-04-28T20:03:48.060Z,101885.05
2019-04-28T20:07:11.129Z,101893.89
2019-04-28T20:10:34.276Z,101896.03
2019-04-28T20:13:57.519Z,101903.98
2019-04-28T20:17:21.551Z,101901.80
2019-04-28T20:20:44.828Z,101902.78
2019-04-28T20:24:08.276Z,101908.16
2019-04-28T20:27:31.427Z,101913.77
2019-04-28T20:30:54.841Z,101914.38
2019-04-28T20:34:18.566Z,101908.50
2019-04-28T20:37:46.588Z,101908.95
2019-04-28T20:41:35.459Z,101914.13
2019-04-28T20:44:58.537Z,101913.70
2019-04-28T20:48:21.648Z,101926.05
2019-04-28T20:51:44.668Z,101924.45
2019-04-28T20:55:07.697Z,101926.12
2019-04-28T20:58:30.863Z,101925.92
2019-04-28T21:01:53.881Z,101929.64
2019-04-28T21:05:17.051Z,101933.98
2019-04-28T21:08:40.721Z,101936.69
2019-04-28T21:12:03.871Z,101942.52
2019-04-28T21:15:27.218Z,101943.31
2019-04-28T21:18:50.363Z,101942.28
2019-04-28T21:22:13.890Z,101940.47
2019-04-28T21:25:37.018Z,101950.89
2019-04-28T21:29:00.154Z,101949.38
2019-04-28T21:32:23.622Z,101952.30
2019-04-28T21:35:46.747Z,101958.01
2019-04-28T21:39:09.856Z,101960.27
2019-04-28T21:42:57.668Z,101960.50
2019-04-28T21:46:52.622Z,101959.96
2019-04-28T21:50:16.447Z,101961.97
2019-04-28T21:53:40.230Z,101958.39
2019-04-28T21:57:03.272Z,101958.95
2019-04-28T22:00:42.220Z,101957.86
2019-04-28T22:04:20.293Z,101961.35
2019-04-28T22:07:43.384Z,101963.78
2019-04-28T22:11:06.394Z,101964.26
2019-04-28T22:14:29.578Z,101952.84
2019-04-28T22:17:52.553Z,101963.13
2019-04-28T22:21:15.680Z,101956.66
2019-04-28T22:24:47.203Z,101957.96
2019-04-28T22:28:10.354Z,101955.78
2019-04-28T22:31:33.493Z,101958.20
2019-04-28T22:34:56.672Z,101961.42
2019-04-28T22:38:19.787Z,101966.20
2019-04-28T22:41:42.975Z,101966.22
2019-04-28T22:45:06.687Z,101969.65
2019-04-28T22:48:29.749Z,101966.94
2019-04-28T22:51:52.773Z,101967.73
2019-04-28T22:55:20.359Z,101974.86
2019-04-28T22:58:49.140Z,101973.32
2019-04-28T23:02:14.522Z,101976.34
2019-04-28T23:05:37.770Z,101990.59
2019-04-28T23:09:01.022Z,101983.73
2019-04-28T23:12:24.788Z,101987.23
2019-04-28T23:15:48.341Z,101987.80
2019-04-28T23:19:13.546Z,101985.28
2019-04-28T23:22:48.607Z,101999.71
2019-04-28T23:26:12.259Z,102001.86
2019-04-28T23:29:35.397Z,102000.23
2019-04-28T23:32:58.624Z,102003.32
2019-04-28T23:36:21.742Z,102011.76
2019-04-28T23:39:44.792Z,102012.09
2019-04-28T23:43:12.862Z,102005.73
2019-04-28T23:46:55.977Z,102005.48
2019-04-28T23:50:27.276Z,102014.66
2019-04-28T23:53:59.169Z,102011.05
2019-04-28T23:57:22.272Z,102015.27
